createdAt,value
2023-11-26T00:01:42.528Z,-1.00
2023-11-26T00:04:12.125Z,-1.00
2023-11-26T00:06:47.637Z,-1.00
2023-11-26T00:09:17.068Z,-1.00
2023-11-26T00:11:51.008Z,-1.00
2023-11-26T00:14:20.229Z,-1.00
2023-11-26T00:16:47.303Z,-1.00
2023-11-26T00:19:14.412Z,-1.10
2023-11-26T00:21:41.385Z,-1.10
2023-11-26T00:24:08.612Z,-1.10
2023-11-26T00:26:35.729Z,-1.10
2023-11-26T00:29:03.748Z,-1.10
2023-11-26T00:31:33.040Z,-1.10
2023-11-26T00:34:00.460Z,-1.10
2023-11-26T00:36:30.109Z,-1.10
2023-11-26T00:39:01.589Z,-1.20
2023-11-26T00:41:31.173Z,-1.20
2023-11-26T00:43:58.234Z,-1.20
2023-11-26T00:46:25.322Z,-1.20
2023-11-26T00:49:25.277Z,-1.30
2023-11-26T00:51:55.448Z,-1.30
2023-11-26T00:54:40.856Z,-1.30
2023-11-26T00:57:12.472Z,-1.30
2023-11-26T00:59:41.438Z,-1.30
2023-11-26T01:02:11.664Z,-1.30
2023-11-26T01:04:38.813Z,-1.30
2023-11-26T01:07:07.242Z,-1.30
2023-11-26T01:09:34.217Z,-1.30
2023-11-26T01:12:01.165Z,-1.30
2023-11-26T01:14:28.276Z,-1.30
2023-11-26T01:16:58.022Z,-1.40
2023-11-26T01:19:27.492Z,-1.50
2023-11-26T01:21:55.284Z,-1.50
2023-11-26T01:24:22.262Z,-1.50
2023-11-26T01:26:51.648Z,-1.50
2023-11-26T01:29:18.628Z,-1.50
2023-11-26T01:31:45.994Z,-1.50
2023-11-26T01:34:16.378Z,-1.50
2023-11-26T01:36:43.332Z,-1.50
2023-11-26T01:39:10.725Z,-1.50
2023-11-26T01:41:40.001Z,-1.50
2023-11-26T01:44:09.639Z,-1.50
2023-11-26T01:46:39.689Z,-1.50
2023-11-26T01:49:06.851Z,-1.50
2023-11-26T01:51:36.108Z,-1.50
2023-11-26T01:54:05.156Z,-1.40
2023-11-26T01:56:32.644Z,-1.40
2023-11-26T01:58:59.694Z,-1.30
2023-11-26T02:01:29.986Z,-1.30
2023-11-26T02:03:57.178Z,-1.30
2023-11-26T02:06:24.259Z,-1.30
2023-11-26T02:08:51.866Z,-1.30
2023-11-26T02:11:18.838Z,-1.30
2023-11-26T02:13:47.132Z,-1.30
2023-11-26T02:16:14.908Z,-1.30
2023-11-26T02:18:42.207Z,-1.30
2023-11-26T02:21:09.448Z,-1.30
2023-11-26T02:23:39.015Z,-1.30
2023-11-26T02:26:10.518Z,-1.30
2023-11-26T02:28:39.132Z,-1.30
2023-11-26T02:31:08.661Z,-1.30
2023-11-26T02:33:53.742Z,-1.30
2023-11-26T02:36:28.847Z,-1.20
2023-11-26T02:38:58.541Z,-1.20
2023-11-26T02:41:27.893Z,-1.20
2023-11-26T02:43:55.075Z,-1.10
2023-11-26T02:46:24.376Z,-1.20
2023-11-26T02:48:51.556Z,-1.20
2023-11-26T02:51:19.189Z,-1.30
2023-11-26T02:53:48.211Z,-1.30
2023-11-26T02:56:15.265Z,-1.30
2023-11-26T02:58:42.791Z,-1.30
2023-11-26T03:01:17.171Z,-1.30
2023-11-26T03:03:45.618Z,-1.30
2023-11-26T03:06:12.868Z,-1.30
2023-11-26T03:08:44.358Z,-1.30
2023-11-26T03:11:30.398Z,-1.40
2023-11-26T03:14:04.660Z,-1.40
2023-11-26T03:16:31.788Z,-1.30
2023-11-26T03:19:01.003Z,-1.30
2023-11-26T03:21:32.376Z,-1.30
2023-11-26T03:23:59.461Z,-1.30
2023-11-26T03:26:29.073Z,-1.30
2023-11-26T03:28:56.271Z,-1.20
2023-11-26T03:31:24.485Z,-1.10
2023-11-26T03:33:54.120Z,-1.10
2023-11-26T03:36:22.536Z,-1.10
2023-11-26T03:38:55.292Z,-1.00
2023-11-26T03:41:22.322Z,-1.00
2023-11-26T03:43:49.312Z,-0.90
2023-11-26T03:46:16.695Z,-0.80
2023-11-26T03:48:50.719Z,-0.70
2023-11-26T03:51:19.434Z,-0.70
2023-11-26T03:53:49.086Z,-0.70
2023-11-26T03:56:20.837Z,-0.70
2023-11-26T03:58:50.039Z,-0.60
2023-11-26T04:01:19.488Z,-0.60
2023-11-26T04:03:46.461Z,-0.60
2023-11-26T04:06:20.318Z,-0.60
2023-11-26T04:08:47.335Z,-0.60
2023-11-26T04:11:16.768Z,-0.50
2023-11-26T04:13:46.023Z,-0.50
2023-11-26T04:16:20.065Z,-0.50
2023-11-26T04:18:47.252Z,-0.50
2023-11-26T04:21:14.275Z,-0.40
2023-11-26T04:23:41.271Z,-0.40
2023-11-26T04:26:08.306Z,-0.40
2023-11-26T04:28:37.488Z,-0.50
2023-11-26T04:31:09.430Z,-0.50
2023-11-26T04:33:41.842Z,-0.50
2023-11-26T04:36:09.073Z,-0.50
2023-11-26T04:38:36.020Z,-0.60
2023-11-26T04:41:05.456Z,-0.60
2023-11-26T04:43:32.640Z,-0.60
2023-11-26T04:46:02.074Z,-0.60
2023-11-26T04:48:34.935Z,-0.60
2023-11-26T04:51:01.937Z,-0.60
2023-11-26T04:53:28.932Z,-0.60
2023-11-26T04:55:59.193Z,-0.60
2023-11-26T04:58:26.342Z,-0.60
2023-11-26T05:00:53.314Z,-0.70
2023-11-26T05:03:23.560Z,-0.70
2023-11-26T05:05:53.650Z,-0.70
2023-11-26T05:08:22.732Z,-0.70
2023-11-26T05:10:49.896Z,-0.70
2023-11-26T05:13:17.317Z,-0.70
2023-11-26T05:15:44.255Z,-0.70
2023-11-26T05:18:12.258Z,-0.70
2023-11-26T05:20:39.539Z,-0.70
2023-11-26T05:23:06.664Z,-0.70
2023-11-26T05:25:36.098Z,-0.70
2023-11-26T05:28:05.173Z,-0.70
2023-11-26T05:30:34.783Z,-0.60
2023-11-26T05:33:02.256Z,-0.60
2023-11-26T05:35:31.464Z,-0.50
2023-11-26T05:37:58.594Z,-0.50
2023-11-26T05:40:25.603Z,-0.50
2023-11-26T05:42:52.546Z,-0.50
2023-11-26T05:45:19.504Z,-0.50
2023-11-26T05:47:46.919Z,-0.50
2023-11-26T05:50:16.553Z,-0.50
2023-11-26T05:52:43.519Z,-0.60
2023-11-26T05:55:11.555Z,-0.60
2023-11-26T05:57:40.828Z,-0.70
2023-11-26T06:00:08.416Z,-0.70
2023-11-26T06:02:46.604Z,-0.70
2023-11-26T06:05:14.805Z,-0.70
2023-11-26T06:07:44.057Z,-0.70
2023-11-26T06:10:11.007Z,-0.80
2023-11-26T06:12:38.021Z,-0.70
2023-11-26T06:15:05.397Z,-0.80
2023-11-26T06:17:32.409Z,-0.80
2023-11-26T06:19:59.403Z,-0.80
2023-11-26T06:22:26.360Z,-0.80
2023-11-26T06:24:53.306Z,-0.90
2023-11-26T06:27:20.288Z,-0.90
2023-11-26T06:29:47.294Z,-0.90
2023-11-26T06:32:16.420Z,-0.90
2023-11-26T06:34:43.775Z,-0.90
2023-11-26T06:37:10.737Z,-0.90
2023-11-26T06:39:40.199Z,-0.90
2023-11-26T06:42:07.306Z,-1.00
2023-11-26T06:44:38.833Z,-1.00
2023-11-26T06:47:05.890Z,-1.00
2023-11-26T06:49:33.153Z,-1.00
2023-11-26T06:52:00.157Z,-1.00
2023-11-26T06:54:29.296Z,-1.00
2023-11-26T06:56:56.255Z,-1.10
2023-11-26T06:59:23.349Z,-1.10
2023-11-26T07:01:50.365Z,-1.10
2023-11-26T07:04:17.538Z,-1.00
2023-11-26T07:06:44.613Z,-1.00
2023-11-26T07:09:11.949Z,-1.00
2023-11-26T07:11:41.442Z,-0.90
2023-11-26T07:14:13.330Z,-0.90
2023-11-26T07:16:42.902Z,-0.80
2023-11-26T07:19:12.369Z,-0.70
2023-11-26T07:21:42.716Z,-0.70
2023-11-26T07:24:13.150Z,-0.60
2023-11-26T07:26:40.173Z,-0.60
2023-11-26T07:29:08.553Z,-0.60
2023-11-26T07:31:36.106Z,-0.60
2023-11-26T07:34:03.078Z,-0.60
2023-11-26T07:36:33.628Z,-0.50
2023-11-26T07:39:00.866Z,-0.50
2023-11-26T07:41:28.094Z,-0.50
2023-11-26T07:43:59.437Z,-0.50
2023-11-26T07:46:27.121Z,-0.50
2023-11-26T07:48:56.452Z,-0.40
2023-11-26T07:51:25.835Z,-0.40
2023-11-26T07:53:54.863Z,-0.40
2023-11-26T07:56:26.561Z,-0.40
2023-11-26T07:58:53.604Z,-0.30
2023-11-26T08:01:24.104Z,-0.30
2023-11-26T08:03:54.848Z,-0.30
2023-11-26T08:06:22.101Z,-0.30
2023-11-26T08:08:54.803Z,-0.20
2023-11-26T08:11:22.313Z,-0.20
2023-11-26T08:13:51.505Z,-0.20
2023-11-26T08:16:19.120Z,-0.20
2023-11-26T08:18:46.432Z,-0.30
2023-11-26T08:21:13.550Z,-0.30
2023-11-26T08:23:47.260Z,-0.40
2023-11-26T08:26:17.146Z,-0.40
2023-11-26T08:28:44.906Z,-0.40
2023-11-26T08:31:14.429Z,-0.50
2023-11-26T08:33:46.295Z,-0.50
2023-11-26T08:36:17.279Z,-0.40
2023-11-26T08:38:44.756Z,-0.40
2023-11-26T08:41:16.252Z,-0.40
2023-11-26T08:43:45.688Z,-0.30
2023-11-26T08:46:16.490Z,-0.30
2023-11-26T08:48:46.584Z,-0.20
2023-11-26T08:51:13.816Z,-0.10
2023-11-26T08:53:40.762Z,-0.10
2023-11-26T08:56:12.450Z,-0.10
2023-11-26T08:58:39.436Z,0.00
2023-11-26T09:01:06.538Z,0.00
2023-11-26T09:03:33.783Z,0.00
2023-11-26T09:06:01.033Z,0.20
2023-11-26T09:08:28.117Z,0.30
2023-11-26T09:10:57.884Z,0.50
2023-11-26T09:13:30.551Z,0.60
2023-11-26T09:16:04.448Z,0.70
2023-11-26T09:18:31.470Z,0.80
2023-11-26T09:20:58.592Z,0.90
2023-11-26T09:23:29.866Z,1.00
2023-11-26T09:25:59.618Z,1.00
2023-11-26T09:28:30.183Z,1.10
2023-11-26T09:30:57.147Z,1.10
2023-11-26T09:33:26.328Z,1.20
2023-11-26T09:35:58.089Z,1.30
2023-11-26T09:38:27.434Z,1.40
2023-11-26T09:40:56.608Z,1.50
2023-11-26T09:43:23.904Z,1.60
2023-11-26T09:45:50.993Z,1.70
2023-11-26T09:48:22.655Z,1.80
2023-11-26T09:50:55.373Z,1.90
2023-11-26T09:53:22.726Z,2.00
2023-11-26T09:55:49.701Z,2.20
2023-11-26T09:58:18.727Z,2.30
2023-11-26T10:00:45.708Z,2.40
2023-11-26T10:03:12.742Z,2.50
2023-11-26T10:05:44.301Z,2.50
2023-11-26T10:08:29.194Z,2.70
2023-11-26T10:10:56.751Z,2.90
2023-11-26T10:13:24.747Z,3.00
2023-11-26T10:15:51.882Z,3.00
2023-11-26T10:18:23.674Z,3.10
2023-11-26T10:20:55.071Z,3.30
2023-11-26T10:23:30.069Z,3.40
2023-11-26T10:25:59.541Z,3.50
2023-11-26T10:28:26.700Z,3.50
2023-11-26T10:30:55.798Z,3.60
2023-11-26T10:33:25.048Z,3.70
2023-11-26T10:35:56.059Z,3.70
2023-11-26T10:38:26.919Z,3.80
2023-11-26T10:40:54.505Z,3.90
2023-11-26T10:43:21.532Z,3.90
2023-11-26T10:45:51.529Z,4.00
2023-11-26T10:48:20.946Z,4.10
2023-11-26T10:51:20.490Z,4.20
2023-11-26T10:54:15.248Z,4.30
2023-11-26T10:56:42.696Z,4.40
2023-11-26T10:59:10.860Z,4.50
2023-11-26T11:01:40.558Z,4.50
2023-11-26T11:04:15.006Z,4.60
2023-11-26T11:06:46.991Z,4.70
2023-11-26T11:09:19.265Z,4.70
2023-11-26T11:12:07.866Z,4.70
2023-11-26T11:14:34.953Z,4.70
2023-11-26T11:17:01.979Z,4.70
2023-11-26T11:19:47.864Z,4.70
2023-11-26T11:22:14.860Z,4.70
2023-11-26T11:24:41.873Z,4.70
2023-11-26T11:27:11.452Z,4.70
2023-11-26T11:29:38.471Z,4.70
2023-11-26T11:32:10.749Z,4.80
2023-11-26T11:34:40.166Z,4.70
2023-11-26T11:37:09.508Z,4.80
2023-11-26T11:39:45.888Z,4.80
2023-11-26T11:42:14.725Z,4.70
2023-11-26T11:44:45.170Z,4.70
2023-11-26T11:47:15.308Z,4.70
2023-11-26T11:49:52.633Z,4.70
2023-11-26T11:52:21.886Z,4.70
2023-11-26T11:54:58.013Z,4.80
2023-11-26T11:57:28.721Z,4.90
2023-11-26T11:59:56.768Z,4.90
2023-11-26T12:02:26.448Z,5.00
2023-11-26T12:04:53.557Z,5.00
2023-11-26T12:07:21.054Z,5.00
2023-11-26T12:09:48.637Z,5.10
2023-11-26T12:12:22.085Z,5.20
2023-11-26T12:14:49.194Z,5.30
2023-11-26T12:17:17.375Z,5.30
2023-11-26T12:19:44.759Z,5.30
2023-11-26T12:22:12.285Z,5.30
2023-11-26T12:24:40.256Z,5.50
2023-11-26T12:27:07.615Z,5.50
2023-11-26T12:29:35.304Z,5.50
2023-11-26T12:32:09.177Z,5.60
2023-11-26T12:34:40.261Z,5.60
2023-11-26T12:37:11.359Z,5.70
2023-11-26T12:39:39.824Z,5.80
2023-11-26T12:42:09.291Z,5.80
2023-11-26T12:44:36.250Z,5.90
2023-11-26T12:47:06.683Z,5.90
2023-11-26T12:49:33.649Z,6.00
2023-11-26T12:52:00.619Z,6.00
2023-11-26T12:54:27.647Z,6.00
2023-11-26T12:56:57.292Z,6.00
2023-11-26T12:59:24.721Z,5.90
2023-11-26T13:01:52.365Z,5.90
2023-11-26T13:04:31.178Z,5.80
2023-11-26T13:07:02.507Z,5.80
2023-11-26T13:09:32.070Z,5.70
2023-11-26T13:12:02.734Z,5.70
2023-11-26T13:14:38.837Z,5.70
2023-11-26T13:17:05.911Z,5.70
2023-11-26T13:19:32.877Z,5.70
2023-11-26T13:22:04.121Z,5.80
2023-11-26T13:24:33.683Z,5.80
2023-11-26T13:27:01.540Z,5.90
2023-11-26T13:29:33.258Z,5.90
2023-11-26T13:32:00.219Z,6.00
2023-11-26T13:34:27.351Z,6.00
2023-11-26T13:36:54.564Z,6.00
2023-11-26T13:39:21.987Z,6.00
2023-11-26T13:41:48.997Z,6.00
2023-11-26T13:44:15.918Z,6.10
2023-11-26T13:46:43.795Z,6.10
2023-11-26T13:49:13.124Z,6.10
2023-11-26T13:51:40.305Z,6.10
2023-11-26T13:54:07.391Z,6.10
2023-11-26T13:56:34.395Z,6.20
2023-11-26T13:59:06.267Z,6.20
2023-11-26T14:01:37.375Z,6.20
2023-11-26T14:04:06.055Z,6.20
2023-11-26T14:06:33.092Z,6.20
2023-11-26T14:09:00.089Z,6.20
2023-11-26T14:11:29.370Z,6.20
2023-11-26T14:13:56.875Z,6.20
2023-11-26T14:16:23.933Z,6.20
2023-11-26T14:18:51.001Z,6.20
2023-11-26T14:21:23.169Z,6.20
2023-11-26T14:23:52.708Z,6.20
2023-11-26T14:26:20.982Z,6.10
2023-11-26T14:28:48.093Z,6.00
2023-11-26T14:31:15.275Z,6.00
2023-11-26T14:33:43.025Z,5.90
2023-11-26T14:36:15.908Z,5.90
2023-11-26T14:38:45.158Z,5.90
2023-11-26T14:41:15.221Z,5.90
2023-11-26T14:43:42.221Z,5.90
2023-11-26T14:46:13.911Z,5.90
2023-11-26T14:48:41.203Z,5.90
2023-11-26T14:51:09.281Z,6.00
2023-11-26T14:53:36.283Z,6.00
2023-11-26T14:56:09.468Z,6.00
2023-11-26T14:58:36.554Z,6.00
2023-11-26T15:01:04.037Z,6.00
2023-11-26T15:03:33.030Z,6.10
2023-11-26T15:06:00.120Z,6.10
2023-11-26T15:08:30.048Z,6.10
2023-11-26T15:10:57.056Z,6.20
2023-11-26T15:13:26.132Z,6.20
2023-11-26T15:15:57.230Z,6.20
2023-11-26T15:18:24.355Z,6.20
2023-11-26T15:20:51.326Z,6.20
2023-11-26T15:23:24.628Z,6.20
2023-11-26T15:25:53.921Z,6.20
2023-11-26T15:28:21.733Z,6.20
2023-11-26T15:30:51.252Z,6.20
2023-11-26T15:33:18.300Z,6.20
2023-11-26T15:35:50.056Z,6.30
2023-11-26T15:38:17.006Z,6.30
2023-11-26T15:40:44.108Z,6.30
2023-11-26T15:43:13.572Z,6.30
2023-11-26T15:45:40.637Z,6.30
2023-11-26T15:48:10.430Z,6.30
2023-11-26T15:50:39.756Z,6.30
2023-11-26T15:53:09.195Z,6.30
2023-11-26T15:55:37.238Z,6.30
2023-11-26T15:58:06.548Z,6.30
2023-11-26T16:00:33.576Z,6.30
2023-11-26T16:03:04.962Z,6.30
2023-11-26T16:05:32.480Z,6.20
2023-11-26T16:08:01.823Z,6.20
2023-11-26T16:10:28.803Z,6.20
2023-11-26T16:12:58.061Z,6.20
2023-11-26T16:15:25.507Z,6.20
2023-11-26T16:17:52.808Z,6.30
2023-11-26T16:20:21.860Z,6.30
2023-11-26T16:22:49.084Z,6.30
2023-11-26T16:25:20.632Z,6.30
2023-11-26T16:27:48.996Z,6.30
2023-11-26T16:30:17.957Z,6.30
2023-11-26T16:32:47.770Z,6.30
2023-11-26T16:35:14.767Z,6.30
2023-11-26T16:37:41.718Z,6.40
2023-11-26T16:40:13.788Z,6.40
2023-11-26T16:42:40.934Z,6.40
2023-11-26T16:45:10.803Z,6.50
2023-11-26T16:47:42.493Z,6.50
2023-11-26T16:50:09.779Z,6.50
2023-11-26T16:52:39.193Z,6.50
2023-11-26T16:55:06.921Z,6.50
2023-11-26T16:57:38.614Z,6.50
2023-11-26T17:00:06.093Z,6.50
2023-11-26T17:02:33.286Z,6.50
2023-11-26T17:05:07.492Z,6.50
2023-11-26T17:07:34.781Z,6.50
2023-11-26T17:10:01.791Z,6.50
2023-11-26T17:12:28.891Z,6.50
2023-11-26T17:14:58.054Z,6.50
2023-11-26T17:17:25.348Z,6.60
2023-11-26T17:19:55.088Z,6.60
2023-11-26T17:22:24.127Z,6.60
2023-11-26T17:24:51.085Z,6.60
2023-11-26T17:27:20.408Z,6.60
2023-11-26T17:29:49.682Z,6.60
2023-11-26T17:32:17.354Z,6.70
2023-11-26T17:34:47.535Z,6.70
2023-11-26T17:37:14.597Z,6.70
2023-11-26T17:39:41.629Z,6.60
2023-11-26T17:42:08.628Z,6.60
2023-11-26T17:44:38.244Z,6.60
2023-11-26T17:47:08.698Z,6.60
2023-11-26T17:49:36.680Z,6.60
2023-11-26T17:52:04.795Z,6.60
2023-11-26T17:54:31.866Z,6.70
2023-11-26T17:57:01.257Z,6.70
2023-11-26T17:59:30.450Z,6.70
2023-11-26T18:01:57.450Z,6.70
2023-11-26T18:04:27.116Z,6.60
2023-11-26T18:06:55.811Z,6.60
2023-11-26T18:09:22.828Z,6.60
2023-11-26T18:11:49.811Z,6.60
2023-11-26T18:14:21.107Z,6.60
2023-11-26T18:16:53.705Z,6.60
2023-11-26T18:19:24.540Z,6.60
2023-11-26T18:21:53.768Z,6.60
2023-11-26T18:24:27.861Z,6.60
2023-11-26T18:26:57.014Z,6.60
2023-11-26T18:29:26.594Z,6.60
2023-11-26T18:31:53.769Z,6.60
2023-11-26T18:34:20.922Z,6.70
2023-11-26T18:36:47.993Z,6.70
2023-11-26T18:39:15.060Z,6.70
2023-11-26T18:41:41.996Z,6.70
2023-11-26T18:44:09.834Z,6.70
2023-11-26T18:46:41.368Z,6.80
2023-11-26T18:49:12.259Z,6.80
2023-11-26T18:51:47.729Z,6.80
2023-11-26T18:54:17.181Z,6.80
2023-11-26T18:56:46.502Z,6.80
2023-11-26T18:59:19.045Z,6.80
2023-11-26T19:01:48.498Z,6.80
2023-11-26T19:04:21.258Z,6.80
2023-11-26T19:06:48.819Z,6.80
2023-11-26T19:09:21.016Z,6.80
2023-11-26T19:11:48.232Z,6.90
2023-11-26T19:14:15.499Z,6.90
2023-11-26T19:16:44.713Z,6.90
2023-11-26T19:19:11.818Z,6.90
2023-11-26T19:21:38.976Z,6.90
2023-11-26T19:24:06.377Z,7.00
2023-11-26T19:26:35.933Z,7.00
2023-11-26T19:29:03.078Z,7.00
2023-11-26T19:31:33.003Z,7.00
2023-11-26T19:34:00.480Z,7.00
2023-11-26T19:36:28.209Z,7.00
2023-11-26T19:38:55.480Z,7.00
2023-11-26T19:41:22.736Z,7.00
2023-11-26T19:43:49.881Z,7.00
2023-11-26T19:46:19.889Z,7.00
2023-11-26T19:48:52.565Z,7.00
2023-11-26T19:51:23.461Z,7.10
2023-11-26T19:53:50.716Z,7.10
2023-11-26T19:56:20.364Z,7.20
2023-11-26T19:58:48.246Z,7.20
2023-11-26T20:01:16.121Z,7.20
2023-11-26T20:03:48.243Z,7.20
2023-11-26T20:06:15.986Z,7.20
2023-11-26T20:08:46.311Z,7.20
2023-11-26T20:11:13.749Z,7.30
2023-11-26T20:13:43.319Z,7.30
2023-11-26T20:16:14.506Z,7.30
2023-11-26T20:18:44.263Z,7.40
2023-11-26T20:21:14.086Z,7.40
2023-11-26T20:23:41.209Z,7.40
2023-11-26T20:26:08.390Z,7.50
2023-11-26T20:28:36.215Z,7.50
2023-11-26T20:31:08.863Z,7.50
2023-11-26T20:33:38.380Z,7.50
2023-11-26T20:36:08.116Z,7.50
2023-11-26T20:38:37.613Z,7.50
2023-11-26T20:41:06.204Z,7.50
2023-11-26T20:43:33.773Z,7.50
2023-11-26T20:46:00.914Z,7.50
2023-11-26T20:48:28.038Z,7.50
2023-11-26T20:50:57.741Z,7.50
2023-11-26T20:53:27.284Z,7.50
2023-11-26T20:55:59.355Z,7.50
2023-11-26T20:58:28.695Z,7.50
2023-11-26T21:00:56.027Z,7.50
2023-11-26T21:03:23.128Z,7.60
2023-11-26T21:05:50.117Z,7.60
2023-11-26T21:08:17.115Z,7.60
2023-11-26T21:10:44.193Z,7.60
2023-11-26T21:13:11.176Z,7.60
2023-11-26T21:15:39.493Z,7.60
2023-11-26T21:18:09.126Z,7.70
2023-11-26T21:20:36.131Z,7.70
2023-11-26T21:23:05.403Z,7.70
2023-11-26T21:25:34.711Z,7.80
2023-11-26T21:28:01.717Z,7.80
2023-11-26T21:30:28.648Z,7.80
2023-11-26T21:32:55.873Z,7.80
2023-11-26T21:35:25.222Z,8.00
2023-11-26T21:37:52.205Z,8.00
2023-11-26T21:40:21.751Z,8.00
2023-11-26T21:42:48.735Z,8.10
2023-11-26T21:45:16.236Z,8.20
2023-11-26T21:47:43.231Z,8.20
2023-11-26T21:50:11.057Z,8.30
2023-11-26T21:52:38.053Z,8.40
2023-11-26T21:55:08.319Z,8.40
2023-11-26T21:57:37.886Z,8.50
2023-11-26T22:00:05.416Z,8.60
2023-11-26T22:02:39.876Z,8.60
2023-11-26T22:05:07.146Z,8.70
2023-11-26T22:07:34.102Z,8.80
2023-11-26T22:10:01.129Z,8.80
2023-11-26T22:12:28.140Z,8.80
2023-11-26T22:14:55.054Z,8.90
2023-11-26T22:17:22.033Z,8.90
2023-11-26T22:19:51.393Z,9.00
2023-11-26T22:22:23.401Z,9.00
2023-11-26T22:24:51.692Z,9.00
2023-11-26T22:27:19.001Z,9.00
2023-11-26T22:29:45.929Z,9.10
2023-11-26T22:32:15.478Z,9.20
2023-11-26T22:34:42.430Z,9.20
2023-11-26T22:37:09.446Z,9.20
2023-11-26T22:39:36.581Z,9.20
2023-11-26T22:42:06.202Z,9.20
2023-11-26T22:44:33.235Z,9.20
2023-11-26T22:47:02.599Z,9.30
2023-11-26T22:49:32.031Z,9.30
2023-11-26T22:51:59.113Z,9.30
2023-11-26T22:54:26.066Z,9.30
2023-11-26T22:56:55.250Z,9.40
2023-11-26T22:59:22.435Z,9.40
2023-11-26T23:01:51.863Z,9.40
2023-11-26T23:04:19.214Z,9.40
2023-11-26T23:06:46.300Z,9.40
2023-11-26T23:09:13.276Z,9.40
2023-11-26T23:11:43.138Z,9.40
2023-11-26T23:14:10.074Z,9.40
2023-11-26T23:16:39.305Z,9.40
2023-11-26T23:19:06.309Z,9.40
2023-11-26T23:21:33.291Z,9.40
2023-11-26T23:24:03.066Z,9.40
2023-11-26T23:26:30.050Z,9.40
2023-11-26T23:28:57.022Z,9.40
2023-11-26T23:31:24.099Z,9.40
2023-11-26T23:33:51.464Z,9.40
2023-11-26T23:36:18.695Z,9.40
2023-11-26T23:38:50.937Z,9.40
2023-11-26T23:41:20.452Z,9.40
2023-11-26T23:43:47.395Z,9.40
2023-11-26T23:46:17.399Z,9.40
2023-11-26T23:48:50.129Z,9.50
2023-11-26T23:51:19.544Z,9.50
2023-11-26T23:53:46.487Z,9.50
2023-11-26T23:56:13.463Z,9.50
2023-11-26T23:58:40.561Z,9.50
